createdAt,value
2022-09-16T00:03:24.243Z,82.10
2022-09-16T00:08:23.548Z,68.70
2022-09-16T00:13:23.890Z,82.10
2022-09-16T00:18:22.192Z,83.80
2022-09-16T00:23:21.507Z,76.40
2022-09-16T00:28:20.802Z,81.20
2022-09-16T00:33:21.106Z,71.40
2022-09-16T00:38:19.399Z,62.80
2022-09-16T00:43:18.735Z,60.40
2022-09-16T00:48:18.048Z,56.20
2022-09-16T00:53:18.367Z,56.60
2022-09-16T00:58:17.660Z,55.20
2022-09-16T01:03:15.947Z,49.00
2022-09-16T01:08:15.223Z,49.60
2022-09-16T01:13:14.503Z,46.60
2022-09-16T01:18:13.798Z,47.10
2022-09-16T01:23:13.148Z,40.90
2022-09-16T01:28:14.394Z,38.20
2022-09-16T01:33:12.716Z,37.40
2022-09-16T01:38:12.999Z,31.70
2022-09-16T01:43:11.280Z,31.40
2022-09-16T01:48:10.573Z,32.60
2022-09-16T01:53:09.864Z,28.70
2022-09-16T01:58:08.182Z,27.00
2022-09-16T02:03:07.526Z,26.50
2022-09-16T02:08:07.664Z,23.80
2022-09-16T02:13:05.775Z,26.20
2022-09-16T02:18:06.075Z,22.20
2022-09-16T02:23:04.384Z,20.00
2022-09-16T02:28:04.666Z,21.00
2022-09-16T02:33:02.959Z,19.20
2022-09-16T02:38:01.260Z,18.90
2022-09-16T02:43:01.560Z,17.90
2022-09-16T02:48:01.851Z,18.40
2022-09-16T02:53:00.157Z,14.30
2022-09-16T02:57:59.445Z,15.30
2022-09-16T03:02:58.787Z,14.20
2022-09-16T03:07:57.874Z,13.30
2022-09-16T03:12:57.165Z,12.10
2022-09-16T03:17:57.514Z,11.70
2022-09-16T03:22:56.667Z,13.00
2022-09-16T03:27:53.754Z,12.80
2022-09-16T03:32:55.072Z,10.20
2022-09-16T03:37:55.379Z,10.00
2022-09-16T03:42:52.681Z,9.40
2022-09-16T03:47:52.987Z,9.50
2022-09-16T03:52:53.281Z,9.10
2022-09-16T03:57:50.586Z,8.80
2022-09-16T04:02:50.055Z,8.50
2022-09-16T04:07:49.213Z,7.50
2022-09-16T04:12:48.535Z,7.60
2022-09-16T04:17:47.921Z,7.40
2022-09-16T04:22:47.045Z,7.80
2022-09-16T04:27:47.384Z,7.20
2022-09-16T04:32:45.655Z,7.40
2022-09-16T04:37:45.963Z,6.60
2022-09-16T04:42:44.215Z,6.20
2022-09-16T04:47:43.482Z,6.10
2022-09-16T04:52:42.762Z,5.40
2022-09-16T04:57:42.074Z,6.20
2022-09-16T05:02:42.442Z,5.30
2022-09-16T05:07:40.547Z,5.70
2022-09-16T05:12:41.846Z,5.00
2022-09-16T05:17:50.904Z,5.30
2022-09-16T05:22:38.299Z,5.00
2022-09-16T05:27:39.609Z,4.50
2022-09-16T05:32:37.904Z,4.20
2022-09-16T05:37:36.205Z,4.70
2022-09-16T05:42:36.511Z,4.30
2022-09-16T05:47:34.816Z,4.80
2022-09-16T05:52:34.170Z,4.40
2022-09-16T05:57:34.296Z,4.00
2022-09-16T06:02:33.658Z,4.30
2022-09-16T06:07:32.806Z,4.10
2022-09-16T06:12:31.119Z,3.80
2022-09-16T06:17:31.427Z,4.10
2022-09-16T06:22:30.730Z,4.10
2022-09-16T06:27:29.051Z,3.80
2022-09-16T06:32:28.428Z,3.90
2022-09-16T06:37:28.552Z,3.30
2022-09-16T06:42:26.863Z,3.50
2022-09-16T06:47:26.221Z,3.40
2022-09-16T06:52:25.305Z,3.60
2022-09-16T06:57:24.625Z,3.90
2022-09-16T07:02:23.880Z,3.30
2022-09-16T07:07:22.970Z,3.10
2022-09-16T07:12:23.301Z,3.00
2022-09-16T07:17:21.614Z,2.80
2022-09-16T07:22:21.908Z,2.80
2022-09-16T07:27:20.191Z,3.00
2022-09-16T07:32:19.477Z,3.80
2022-09-16T07:37:18.795Z,3.50
2022-09-16T07:42:18.081Z,3.60
2022-09-16T07:47:21.997Z,3.60
2022-09-16T07:52:18.532Z,3.70
2022-09-16T07:57:16.833Z,3.80
2022-09-16T08:02:15.245Z,3.70
2022-09-16T08:07:15.386Z,3.30
2022-09-16T08:12:12.691Z,3.20
2022-09-16T08:17:12.994Z,3.20
2022-09-16T08:22:12.296Z,3.10
2022-09-16T08:27:13.610Z,3.50
2022-09-16T08:32:10.949Z,3.20
2022-09-16T08:37:10.068Z,3.00
2022-09-16T08:42:10.393Z,3.30
2022-09-16T08:47:08.673Z,2.80
2022-09-16T08:52:09.033Z,2.90
2022-09-16T08:57:07.396Z,3.60
2022-09-16T09:02:09.446Z,2.90
2022-09-16T09:07:07.857Z,2.70
2022-09-16T09:12:06.312Z,3.00
2022-09-16T09:17:04.673Z,3.20
2022-09-16T09:22:04.781Z,3.20
2022-09-16T09:27:03.119Z,2.90
2022-09-16T09:32:03.481Z,3.40
2022-09-16T09:37:00.619Z,3.10
2022-09-16T09:42:00.769Z,3.10
2022-09-16T09:47:01.909Z,2.80
2022-09-16T09:52:00.267Z,3.10
2022-09-16T09:56:59.420Z,2.50
2022-09-16T10:01:59.785Z,2.70
2022-09-16T10:06:56.777Z,2.80
2022-09-16T10:11:56.073Z,2.80
2022-09-16T10:16:56.454Z,3.10
2022-09-16T10:21:54.589Z,2.70
2022-09-16T10:26:55.752Z,3.30
2022-09-16T10:31:53.942Z,3.30
2022-09-16T10:36:53.094Z,3.30
2022-09-16T10:41:50.817Z,3.10
2022-09-16T10:46:49.638Z,3.10
2022-09-16T10:51:49.875Z,3.60
2022-09-16T10:56:52.131Z,3.00
2022-09-16T11:01:48.954Z,2.90
2022-09-16T11:06:49.904Z,3.20
2022-09-16T11:11:46.733Z,3.00
2022-09-16T11:16:46.019Z,2.90
2022-09-16T11:21:45.329Z,2.80
2022-09-16T11:26:44.537Z,3.20
2022-09-16T11:31:43.863Z,2.80
2022-09-16T11:36:41.955Z,2.70
2022-09-16T11:41:41.214Z,3.20
2022-09-16T11:46:41.490Z,2.60
2022-09-16T11:51:40.850Z,3.00
2022-09-16T11:56:40.089Z,2.40
2022-09-16T12:01:39.394Z,3.00
2022-09-16T12:06:39.890Z,2.80
2022-09-16T12:11:36.841Z,3.00
2022-09-16T12:16:37.093Z,3.10
2022-09-16T12:21:36.267Z,3.00
2022-09-16T12:26:35.476Z,3.20
2022-09-16T12:31:34.767Z,2.70
2022-09-16T12:36:34.151Z,3.00
2022-09-16T12:41:33.246Z,2.80
2022-09-16T12:46:32.648Z,3.10
2022-09-16T12:51:31.641Z,3.40
2022-09-16T12:56:29.939Z,3.00
2022-09-16T13:01:30.216Z,2.80
2022-09-16T13:06:30.478Z,3.20
2022-09-16T13:12:16.643Z,3.30
2022-09-16T13:16:26.966Z,2.80
2022-09-16T13:21:26.216Z,2.70
2022-09-16T13:26:26.623Z,2.90
2022-09-16T13:31:26.161Z,3.00
2022-09-16T13:36:24.784Z,3.10
2022-09-16T13:41:23.960Z,2.90
2022-09-16T13:46:22.131Z,2.70
2022-09-16T13:51:22.311Z,3.00
2022-09-16T13:56:22.497Z,2.80
2022-09-16T14:01:22.683Z,2.40
2022-09-16T14:06:19.827Z,2.20
2022-09-16T14:11:19.229Z,2.00
2022-09-16T14:16:21.528Z,2.00
2022-09-16T14:21:17.658Z,2.20
2022-09-16T14:26:16.984Z,2.20
2022-09-16T14:31:16.191Z,1.70
2022-09-16T14:36:16.385Z,1.80
2022-09-16T14:41:14.560Z,1.60
2022-09-16T14:46:13.860Z,1.90
2022-09-16T14:51:13.019Z,1.80
2022-09-16T14:56:13.143Z,1.70
2022-09-16T15:01:13.230Z,1.60
2022-09-16T15:06:10.758Z,1.60
2022-09-16T15:11:19.358Z,1.60
2022-09-16T15:16:09.293Z,1.30
2022-09-16T15:21:07.438Z,1.40
2022-09-16T15:26:07.567Z,1.60
2022-09-16T15:31:05.919Z,1.60
2022-09-16T15:36:06.046Z,2.10
2022-09-16T15:41:06.183Z,1.60
2022-09-16T15:46:05.553Z,2.00
2022-09-16T15:51:04.695Z,134.00
2022-09-16T15:56:04.023Z,100.20
2022-09-16T16:01:04.394Z,76.30
2022-09-16T16:06:01.405Z,43.20
2022-09-16T16:11:00.787Z,30.10
2022-09-16T16:15:59.974Z,26.20
2022-09-16T16:20:58.094Z,24.50
2022-09-16T16:25:58.254Z,22.30
2022-09-16T16:30:56.585Z,16.90
2022-09-16T16:35:57.770Z,16.10
2022-09-16T16:40:58.087Z,124.30
2022-09-16T16:45:55.338Z,62.20
2022-09-16T16:50:55.505Z,54.50
2022-09-16T16:55:53.819Z,39.80
2022-09-16T17:00:53.088Z,27.00
2022-09-16T17:05:54.374Z,31.50
2022-09-16T17:10:51.645Z,30.20
2022-09-16T17:15:50.942Z,23.40
2022-09-16T17:20:50.279Z,23.00
2022-09-16T17:25:49.614Z,19.40
2022-09-16T17:30:48.964Z,21.50
2022-09-16T17:35:50.085Z,19.90
2022-09-16T17:40:47.351Z,17.60
2022-09-16T17:45:47.664Z,17.00
2022-09-16T17:50:45.787Z,14.40
2022-09-16T17:55:46.126Z,16.10
2022-09-16T18:00:44.432Z,15.50
2022-09-16T18:05:43.764Z,15.50
2022-09-16T18:10:42.118Z,12.90
2022-09-16T18:15:42.250Z,22.90
2022-09-16T18:20:40.605Z,14.30
2022-09-16T18:25:40.723Z,33.10
2022-09-16T18:30:40.036Z,22.30
2022-09-16T18:35:39.495Z,15.80
2022-09-16T18:40:40.938Z,13.10
2022-09-16T18:45:37.902Z,28.90
2022-09-16T18:50:37.185Z,47.10
2022-09-16T18:55:37.428Z,30.30
2022-09-16T19:00:35.668Z,23.20
2022-09-16T19:05:34.830Z,16.10
2022-09-16T19:10:35.007Z,23.20
2022-09-16T19:15:34.243Z,26.40
2022-09-16T19:20:33.410Z,24.60
2022-09-16T19:25:31.610Z,18.30
2022-09-16T19:30:31.897Z,12.80
2022-09-16T19:35:31.428Z,9.50
2022-09-16T19:40:29.330Z,13.10
2022-09-16T19:45:28.366Z,12.60
2022-09-16T19:50:28.541Z,14.70
2022-09-16T19:55:27.702Z,28.30
2022-09-16T20:00:36.721Z,52.90
2022-09-16T20:05:25.116Z,25.40
2022-09-16T20:10:23.308Z,18.80
2022-09-16T20:15:23.487Z,12.30
2022-09-16T20:20:24.683Z,46.90
2022-09-16T20:25:23.682Z,14.50
2022-09-16T20:30:21.009Z,11.30
2022-09-16T20:35:20.226Z,12.20
2022-09-16T20:40:19.540Z,12.40
2022-09-16T20:45:19.601Z,21.50
2022-09-16T20:50:17.804Z,12.70
2022-09-16T20:55:17.147Z,19.20
2022-09-16T21:00:17.316Z,22.40
2022-09-16T21:05:15.456Z,22.00
2022-09-16T21:10:15.656Z,10.40
2022-09-16T21:15:14.855Z,12.30
2022-09-16T21:20:13.037Z,52.50
2022-09-16T21:25:12.193Z,187.50
2022-09-16T21:30:11.360Z,149.80
2022-09-16T21:35:15.524Z,110.40
2022-09-16T21:40:09.775Z,62.10
2022-09-16T21:45:09.982Z,80.70
2022-09-16T21:50:08.133Z,35.80
2022-09-16T21:55:07.286Z,10.60
2022-09-16T22:00:06.456Z,11.50
2022-09-16T22:05:06.618Z,13.90
2022-09-16T22:10:04.824Z,12.80
2022-09-16T22:15:03.997Z,16.10
2022-09-16T22:20:03.192Z,78.60
2022-09-16T22:25:02.437Z,79.40
2022-09-16T22:30:01.606Z,21.70
2022-09-16T22:35:03.774Z,44.60
2022-09-16T22:40:02.007Z,69.40
2022-09-16T22:45:00.210Z,22.50
2022-09-16T22:49:58.370Z,43.50
2022-09-16T22:54:58.554Z,13.70
2022-09-16T22:59:56.751Z,13.60
2022-09-16T23:04:55.949Z,21.20
2022-09-16T23:09:56.128Z,33.20
2022-09-16T23:14:55.309Z,72.80
2022-09-16T23:19:53.496Z,65.70
2022-09-16T23:24:52.738Z,75.90
2022-09-16T23:29:52.879Z,60.40
2022-09-16T23:34:52.057Z,60.60
2022-09-16T23:39:51.254Z,56.30
2022-09-16T23:44:50.438Z,51.30
2022-09-16T23:49:49.774Z,47.30
2022-09-16T23:54:47.921Z,45.80
2022-09-16T23:59:47.092Z,42.00
